createdAt,value
2023-06-10T00:00:51.607Z,93.3
2023-06-10T00:01:51.615Z,92.9
2023-06-10T00:02:52.054Z,93.1
2023-06-10T00:03:52.234Z,92.9
2023-06-10T00:04:52.222Z,92.8
2023-06-10T00:05:51.663Z,92.9
2023-06-10T00:06:51.697Z,92.6
2023-06-10T00:07:51.730Z,92.6
2023-06-10T00:08:51.707Z,92.4
2023-06-10T00:09:51.737Z,92.3
2023-06-10T00:10:51.747Z,92.3
2023-06-10T00:11:51.737Z,92.4
2023-06-10T00:12:51.755Z,92.2
2023-06-10T00:13:51.771Z,92.2
2023-06-10T00:14:51.782Z,92.3
2023-06-10T00:15:51.900Z,92.4
2023-06-10T00:16:51.838Z,92.7
2023-06-10T00:17:52.026Z,92.5
2023-06-10T00:18:51.866Z,92.5
2023-06-10T00:19:51.887Z,92.4
2023-06-10T00:20:51.877Z,92.4
2023-06-10T00:21:51.869Z,92.4
2023-06-10T00:22:51.885Z,92.6
2023-06-10T00:23:52.025Z,92.6
2023-06-10T00:24:51.940Z,92.6
2023-06-10T00:25:51.930Z,92.5
2023-06-10T00:26:52.020Z,92.6
2023-06-10T00:27:51.951Z,92.6
2023-06-10T00:28:51.950Z,92.6
2023-06-10T00:29:51.961Z,92.5
2023-06-10T00:30:51.986Z,92.5
2023-06-10T00:31:52.118Z,92.5
2023-06-10T00:32:52.143Z,92.5
2023-06-10T00:33:52.040Z,92.4
2023-06-10T00:34:52.016Z,92.4
2023-06-10T00:35:52.033Z,92.3
2023-06-10T00:36:52.054Z,92.3
2023-06-10T00:37:52.078Z,92.3
2023-06-10T00:38:52.093Z,92.4
2023-06-10T00:39:52.096Z,92.4
2023-06-10T00:40:52.108Z,92.4
2023-06-10T00:41:52.108Z,92.3
2023-06-10T00:42:52.114Z,92.2
2023-06-10T01:00:52.722Z,91.9
2023-06-10T01:01:52.356Z,91.9
2023-06-10T01:02:52.725Z,91.8
2023-06-10T01:03:52.474Z,91.7
2023-06-10T01:04:52.401Z,91.7
2023-06-10T01:05:52.442Z,91.6
2023-06-10T01:06:52.415Z,91.5
2023-06-10T01:07:52.439Z,91.5
2023-06-10T01:08:52.440Z,91.6
2023-06-10T01:09:52.458Z,91.6
2023-06-10T01:10:52.496Z,91.5
2023-06-10T01:11:52.460Z,91.6
2023-06-10T01:12:52.464Z,91.7
2023-06-10T01:13:52.495Z,91.5
2023-06-10T01:14:52.501Z,91.6
2023-06-10T01:15:52.514Z,91.6
2023-06-10T01:16:52.675Z,91.6
2023-06-10T01:17:52.716Z,91.4
2023-06-10T01:18:52.543Z,91.3
2023-06-10T01:19:52.568Z,91.2
2023-06-10T01:20:52.568Z,91.2
2023-06-10T01:21:52.600Z,91.2
2023-06-10T01:22:52.581Z,91.2
2023-06-10T01:23:52.765Z,91.2
2023-06-10T01:24:52.639Z,91.3
2023-06-10T01:25:52.650Z,91.5
2023-06-10T01:26:52.647Z,91.6
2023-06-10T01:27:52.647Z,91.4
2023-06-10T01:28:52.662Z,91.5
2023-06-10T01:29:52.676Z,91.3
2023-06-10T01:30:52.931Z,91.2
2023-06-10T01:31:52.920Z,91.2
2023-06-10T01:32:53.254Z,91.2
2023-06-10T01:33:52.875Z,91.1
2023-06-10T01:34:52.746Z,91.3
2023-06-10T01:35:52.798Z,91.1
2023-06-10T01:36:52.760Z,91.1
2023-06-10T01:37:52.778Z,91.0
2023-06-10T01:38:52.794Z,90.9
2023-06-10T01:39:52.796Z,90.9
2023-06-10T01:40:52.790Z,90.8
2023-06-10T01:41:52.794Z,90.7
2023-06-10T01:42:52.804Z,90.9
2023-06-10T01:43:52.810Z,91.1
2023-06-10T01:44:52.813Z,91.3
2023-06-10T01:45:52.834Z,91.3
2023-06-10T01:46:52.943Z,91.3
2023-06-10T01:47:53.036Z,91.1
2023-06-10T01:48:52.886Z,91.2
2023-06-10T01:49:52.892Z,91.1
2023-06-10T01:50:52.894Z,91.0
2023-06-10T01:51:52.966Z,91.0
2023-06-10T01:52:52.948Z,91.0
2023-06-10T01:53:52.949Z,91.1
2023-06-10T01:54:52.948Z,91.1
2023-06-10T01:55:52.933Z,91.1
2023-06-10T01:56:52.962Z,91.0
2023-06-10T01:57:52.993Z,91.0
2023-06-10T01:58:52.984Z,91.4
2023-06-10T01:59:52.992Z,91.2
2023-06-10T02:00:53.167Z,91.2
2023-06-10T02:01:53.001Z,91.4
2023-06-10T02:02:53.327Z,91.5
2023-06-10T02:03:53.156Z,91.6
2023-06-10T02:04:53.046Z,91.4
2023-06-10T02:05:53.048Z,91.3
2023-06-10T02:06:53.049Z,91.2
2023-06-10T02:07:53.077Z,91.0
2023-06-10T02:08:53.104Z,90.8
2023-06-10T02:09:53.176Z,90.7
2023-06-10T02:10:53.133Z,90.8
2023-06-10T02:11:53.114Z,90.8
2023-06-10T02:12:53.127Z,90.9
2023-06-10T02:13:53.160Z,90.7
2023-06-10T02:14:53.165Z,90.7
2023-06-10T02:15:53.181Z,90.9
2023-06-10T02:16:53.375Z,90.8
2023-06-10T02:17:53.322Z,91.0
2023-06-10T02:18:53.216Z,90.8
2023-06-10T02:19:53.248Z,90.9
2023-06-10T02:20:53.279Z,90.9
2023-06-10T02:21:53.258Z,90.8
2023-06-10T02:22:53.285Z,90.9
2023-06-10T02:23:53.483Z,91.0
2023-06-10T02:24:53.280Z,91.4
2023-06-10T02:25:53.294Z,91.4
2023-06-10T02:26:53.320Z,91.4
2023-06-10T02:27:53.315Z,91.2
2023-06-10T02:28:53.361Z,91.2
2023-06-10T02:29:53.343Z,91.1
2023-06-10T02:30:53.357Z,91.4
2023-06-10T02:31:53.470Z,91.5
2023-06-10T02:32:53.510Z,91.4
2023-06-10T02:33:53.410Z,91.4
2023-06-10T02:34:53.409Z,91.4
2023-06-10T02:35:53.450Z,91.4
2023-06-10T02:36:53.431Z,91.3
2023-06-10T02:37:53.438Z,91.4
2023-06-10T02:38:53.448Z,91.4
2023-06-10T02:39:53.458Z,91.3
2023-06-10T02:40:53.514Z,91.4
2023-06-10T02:41:53.773Z,91.5
2023-06-10T02:42:53.514Z,91.6
2023-06-10T02:43:53.537Z,91.7
2023-06-10T02:44:53.538Z,91.6
2023-06-10T02:45:53.656Z,91.4
2023-06-10T02:46:53.556Z,91.3
2023-06-10T02:47:53.765Z,91.3
2023-06-10T02:48:53.587Z,91.3
2023-06-10T02:49:53.608Z,91.2
2023-06-10T02:50:53.654Z,91.1
2023-06-10T02:51:53.633Z,90.7
2023-06-10T02:52:53.665Z,91.1
2023-06-10T02:53:53.668Z,91.3
2023-06-10T02:54:53.725Z,91.3
2023-06-10T02:55:53.726Z,91.3
2023-06-10T02:56:53.729Z,91.3
2023-06-10T02:57:53.710Z,91.3
2023-06-10T02:58:53.716Z,91.3
2023-06-10T02:59:53.741Z,91.3
2023-06-10T03:00:53.755Z,91.2
2023-06-10T03:01:54.170Z,91.0
2023-06-10T03:02:54.093Z,91.1
2023-06-10T03:03:54.074Z,91.0
2023-06-10T03:04:53.811Z,91.1
2023-06-10T03:05:53.829Z,91.1
2023-06-10T03:06:53.846Z,91.2
2023-06-10T03:07:54.023Z,91.0
2023-06-10T03:08:53.857Z,91.0
2023-06-10T03:09:53.889Z,90.9
2023-06-10T03:10:53.879Z,90.9
2023-06-10T03:11:53.899Z,91.0
2023-06-10T03:12:53.914Z,91.0
2023-06-10T03:13:53.912Z,90.8
2023-06-10T03:14:53.936Z,91.0
2023-06-10T03:15:54.047Z,91.0
2023-06-10T03:16:53.936Z,90.8
2023-06-10T03:17:54.126Z,90.9
2023-06-10T03:18:54.130Z,91.2
2023-06-10T03:19:54.007Z,91.1
2023-06-10T03:20:54.015Z,91.0
2023-06-10T03:21:54.032Z,90.8
2023-06-10T03:22:54.046Z,90.7
2023-06-10T03:23:54.220Z,90.6
2023-06-10T03:24:54.109Z,90.6
2023-06-10T03:25:54.125Z,90.7
2023-06-10T03:26:54.104Z,90.8
2023-06-10T03:27:54.127Z,90.6
2023-06-10T03:28:54.168Z,90.6
2023-06-10T03:29:54.156Z,90.7
2023-06-10T03:30:54.185Z,90.7
2023-06-10T03:31:54.563Z,90.5
2023-06-10T03:32:54.357Z,90.4
2023-06-10T03:33:54.210Z,90.4
2023-06-10T03:34:54.222Z,90.3
2023-06-10T03:35:54.234Z,90.3
2023-06-10T03:36:54.254Z,90.1
2023-06-10T03:37:54.261Z,90.0
2023-06-10T03:38:54.274Z,89.7
2023-06-10T03:39:54.277Z,89.6
2023-06-10T03:40:54.290Z,89.3
2023-06-10T03:41:54.367Z,89.3
2023-06-10T03:42:54.306Z,89.3
2023-06-10T03:43:54.308Z,89.2
2023-06-10T03:44:54.302Z,89.0
2023-06-10T03:45:54.463Z,89.0
2023-06-10T03:46:54.383Z,89.1
2023-06-10T03:47:54.603Z,89.2
2023-06-10T03:48:54.370Z,89.1
2023-06-10T03:49:54.382Z,88.9
2023-06-10T03:50:54.408Z,88.9
2023-06-10T03:51:54.415Z,88.8
2023-06-10T03:52:54.628Z,88.6
2023-06-10T03:53:54.423Z,88.5
2023-06-10T03:54:54.408Z,88.5
2023-06-10T03:55:54.420Z,88.2
2023-06-10T03:56:54.415Z,88.2
2023-06-10T03:57:54.446Z,88.1
2023-06-10T03:58:54.437Z,88.1
2023-06-10T03:59:54.496Z,88.0
2023-06-10T04:00:54.465Z,88.0
2023-06-10T04:01:54.685Z,88.1
2023-06-10T04:02:54.843Z,88.0
2023-06-10T04:03:54.467Z,88.0
2023-06-10T04:04:54.474Z,88.0
2023-06-10T04:05:54.602Z,87.9
2023-06-10T04:06:54.507Z,87.9
2023-06-10T04:07:54.524Z,87.9
2023-06-10T04:08:54.512Z,87.7
2023-06-10T04:09:54.526Z,87.6
2023-06-10T04:10:54.544Z,87.7
2023-06-10T04:11:54.545Z,87.6
2023-06-10T04:12:54.562Z,87.4
2023-06-10T04:13:54.559Z,87.4
2023-06-10T04:14:54.572Z,87.2
2023-06-10T04:15:54.570Z,87.2
2023-06-10T04:16:54.700Z,87.3
2023-06-10T04:17:54.809Z,87.3
2023-06-10T04:18:54.577Z,87.3
2023-06-10T04:19:54.584Z,87.3
2023-06-10T04:20:54.597Z,87.1
2023-06-10T04:21:54.603Z,87.0
2023-06-10T04:22:54.616Z,87.1
2023-06-10T04:23:54.767Z,87.0
2023-06-10T04:24:54.616Z,86.9
2023-06-10T04:25:54.627Z,86.8
2023-06-10T04:26:54.652Z,86.4
2023-06-10T04:27:54.638Z,86.3
2023-06-10T04:28:54.655Z,86.0
2023-06-10T04:29:54.646Z,85.8
2023-06-10T04:30:54.729Z,85.6
2023-06-10T04:31:54.785Z,85.6
2023-06-10T04:32:54.757Z,85.4
2023-06-10T04:33:54.724Z,85.2
2023-06-10T04:34:54.671Z,85.1
2023-06-10T04:35:54.692Z,85.2
2023-06-10T04:36:54.916Z,85.1
2023-06-10T04:37:54.730Z,85.2
2023-06-10T04:38:54.732Z,85.1
2023-06-10T04:39:54.702Z,85.2
2023-06-10T04:40:54.715Z,85.3
2023-06-10T04:41:54.710Z,85.3
2023-06-10T04:42:54.746Z,85.4
2023-06-10T04:43:54.742Z,85.5
2023-06-10T04:44:54.740Z,85.5
2023-06-10T04:45:54.735Z,85.5
2023-06-10T04:46:54.981Z,85.7
2023-06-10T04:47:54.940Z,85.9
2023-06-10T04:48:54.766Z,86.0
2023-06-10T04:49:54.794Z,85.9
2023-06-10T04:50:54.791Z,86.0
2023-06-10T04:51:54.813Z,86.0
2023-06-10T04:52:54.792Z,86.0
2023-06-10T04:53:54.883Z,85.9
2023-06-10T04:54:54.796Z,85.8
2023-06-10T04:55:54.804Z,85.5
2023-06-10T04:56:54.799Z,85.5
2023-06-10T04:57:54.821Z,85.4
2023-06-10T04:58:54.846Z,85.2
2023-06-10T04:59:54.839Z,85.2
2023-06-10T05:00:54.861Z,85.1
2023-06-10T05:01:55.085Z,85.2
2023-06-10T05:02:55.208Z,85.2
2023-06-10T05:03:54.957Z,85.3
2023-06-10T05:04:54.858Z,85.0
2023-06-10T05:05:54.878Z,85.1
2023-06-10T05:06:54.884Z,84.8
2023-06-10T05:07:54.894Z,84.7
2023-06-10T05:08:54.887Z,84.6
2023-06-10T05:09:54.922Z,84.5
2023-06-10T05:10:54.914Z,84.4
2023-06-10T05:11:55.067Z,84.3
2023-06-10T05:12:54.905Z,84.3
2023-06-10T05:13:54.962Z,84.2
2023-06-10T05:14:54.924Z,84.3
2023-06-10T05:15:55.057Z,84.3
2023-06-10T05:16:54.926Z,84.0
2023-06-10T05:17:55.123Z,83.8
2023-06-10T05:18:54.938Z,83.8
2023-06-10T05:19:54.955Z,83.7
2023-06-10T05:20:55.003Z,83.8
2023-06-10T05:21:54.969Z,83.6
2023-06-10T05:22:55.009Z,83.4
2023-06-10T05:23:55.204Z,83.4
2023-06-10T05:24:55.036Z,83.4
2023-06-10T05:25:55.001Z,83.1
2023-06-10T05:26:55.019Z,82.8
2023-06-10T05:27:55.032Z,82.9
2023-06-10T05:28:55.033Z,82.8
2023-06-10T05:29:55.026Z,82.7
2023-06-10T05:30:55.044Z,82.6
2023-06-10T05:31:55.229Z,82.1
2023-06-10T05:32:55.302Z,81.9
2023-06-10T05:33:55.074Z,81.6
2023-06-10T05:34:55.068Z,81.4
2023-06-10T05:35:55.068Z,81.4
2023-06-10T05:36:55.078Z,81.3
2023-06-10T05:37:55.107Z,81.7
2023-06-10T05:38:55.089Z,81.7
2023-06-10T05:39:55.113Z,81.7
2023-06-10T05:40:55.110Z,81.0
2023-06-10T05:41:55.109Z,80.8
2023-06-10T05:42:55.111Z,80.6
2023-06-10T05:43:55.127Z,80.8
2023-06-10T05:44:55.130Z,80.9
2023-06-10T05:45:55.235Z,80.4
2023-06-10T05:46:55.169Z,80.4
2023-06-10T05:47:55.313Z,79.8
2023-06-10T05:48:55.168Z,79.7
2023-06-10T05:49:55.153Z,79.7
2023-06-10T05:50:55.177Z,79.6
2023-06-10T05:51:55.188Z,79.2
2023-06-10T05:52:55.184Z,79.1
2023-06-10T05:53:55.204Z,79.3
2023-06-10T05:54:55.209Z,79.2
2023-06-10T05:55:55.202Z,79.1
2023-06-10T05:56:55.215Z,79.1
2023-06-10T05:57:55.213Z,79.1
2023-06-10T05:58:55.224Z,79.2
2023-06-10T05:59:55.236Z,78.9
2023-06-10T06:00:55.360Z,78.8
2023-06-10T06:01:55.251Z,78.6
2023-06-10T06:02:55.731Z,78.6
2023-06-10T06:03:55.425Z,78.3
2023-06-10T06:04:55.440Z,78.3
2023-06-10T06:05:55.287Z,78.4
2023-06-10T06:06:55.276Z,78.0
2023-06-10T06:07:55.279Z,78.0
2023-06-10T06:08:55.283Z,78.2
2023-06-10T06:09:55.306Z,77.9
2023-06-10T06:10:55.311Z,77.9
2023-06-10T06:11:55.319Z,77.9
2023-06-10T06:12:55.318Z,77.5
2023-06-10T06:13:55.340Z,77.3
2023-06-10T06:14:55.332Z,76.9
2023-06-10T06:15:55.549Z,76.7
2023-06-10T06:16:55.326Z,76.8
2023-06-10T06:17:55.452Z,76.6
2023-06-10T06:18:55.370Z,76.7
2023-06-10T06:19:55.395Z,76.7
2023-06-10T06:20:55.367Z,76.1
2023-06-10T06:21:55.382Z,76.4
2023-06-10T06:22:55.393Z,76.4
2023-06-10T06:23:55.635Z,76.2
2023-06-10T06:24:55.944Z,76.3
2023-06-10T06:25:55.424Z,75.6
2023-06-10T06:26:55.450Z,75.3
2023-06-10T06:27:55.420Z,75.2
2023-06-10T06:28:55.432Z,75.3
2023-06-10T06:29:56.225Z,75.1
2023-06-10T06:30:55.425Z,74.9
2023-06-10T06:31:55.711Z,74.6
2023-06-10T06:32:55.630Z,74.6
2023-06-10T06:33:55.456Z,74.7
2023-06-10T06:34:55.791Z,75.1
2023-06-10T06:35:55.483Z,75.0
2023-06-10T06:36:55.474Z,74.7
2023-06-10T06:37:55.492Z,74.7
2023-06-10T06:38:55.490Z,74.4
2023-06-10T06:39:55.509Z,74.1
2023-06-10T06:40:55.514Z,74.0
2023-06-10T06:41:55.532Z,73.4
2023-06-10T06:42:55.649Z,73.8
2023-06-10T06:43:55.557Z,73.9
2023-06-10T06:44:55.573Z,73.9
2023-06-10T06:45:55.571Z,73.6
2023-06-10T06:46:55.573Z,73.6
2023-06-10T06:47:55.870Z,73.6
2023-06-10T06:48:56.003Z,73.5
2023-06-10T06:49:55.619Z,73.1
2023-06-10T06:50:55.588Z,73.2
2023-06-10T06:51:55.604Z,73.3
2023-06-10T06:52:55.626Z,73.1
2023-06-10T06:53:55.616Z,72.9
2023-06-10T06:54:55.629Z,72.9
2023-06-10T06:55:55.652Z,73.0
2023-06-10T06:56:55.652Z,72.9
2023-06-10T06:57:55.648Z,72.5
2023-06-10T06:58:58.603Z,72.6
2023-06-10T06:59:55.677Z,72.8
2023-06-10T07:00:55.800Z,72.8
2023-06-10T07:01:55.688Z,73.2
2023-06-10T07:02:55.984Z,72.8
2023-06-10T07:03:55.691Z,72.4
2023-06-10T07:04:55.839Z,72.5
2023-06-10T07:05:55.736Z,72.5
2023-06-10T07:06:55.705Z,72.5
2023-06-10T07:07:55.748Z,72.0
2023-06-10T07:08:55.729Z,72.0
2023-06-10T07:09:55.728Z,72.2
2023-06-10T07:10:55.729Z,72.2
2023-06-10T07:11:55.769Z,71.8
2023-06-10T07:12:55.760Z,71.8
2023-06-10T07:13:55.770Z,71.8
2023-06-10T07:14:55.762Z,71.5
2023-06-10T07:15:55.785Z,71.3
2023-06-10T07:16:56.083Z,71.2
2023-06-10T07:17:55.893Z,71.3
2023-06-10T07:18:55.796Z,71.1
2023-06-10T07:19:55.793Z,70.9
2023-06-10T07:20:55.818Z,70.7
2023-06-10T07:21:55.814Z,70.8
2023-06-10T07:22:55.831Z,70.8
2023-06-10T07:23:56.011Z,71.2
2023-06-10T07:24:55.853Z,71.2
2023-06-10T07:25:55.853Z,71.4
2023-06-10T07:26:55.876Z,71.7
2023-06-10T07:27:55.889Z,71.7
2023-06-10T07:28:55.880Z,71.6
2023-06-10T07:29:55.915Z,71.4
2023-06-10T07:30:56.136Z,70.9
2023-06-10T07:31:55.918Z,70.8
2023-06-10T07:32:56.025Z,70.5
2023-06-10T07:33:55.917Z,70.2
2023-06-10T07:34:55.921Z,70.3
2023-06-10T07:35:55.930Z,70.3
2023-06-10T07:36:55.955Z,70.2
2023-06-10T07:37:55.964Z,70.1
2023-06-10T07:38:55.958Z,69.9
2023-06-10T07:39:55.989Z,70.2
2023-06-10T07:40:55.973Z,70.2
2023-06-10T07:41:55.997Z,70.2
2023-06-10T07:42:55.992Z,70.5
2023-06-10T07:43:56.002Z,70.4
2023-06-10T07:44:56.012Z,70.3
2023-06-10T07:45:56.014Z,70.4
2023-06-10T07:46:56.692Z,70.3
2023-06-10T07:47:56.334Z,70.4
2023-06-10T07:48:56.070Z,69.9
2023-06-10T07:49:56.066Z,69.7
2023-06-10T07:50:56.076Z,69.8
2023-06-10T07:51:56.077Z,69.9
2023-06-10T07:52:56.076Z,68.7
2023-06-10T07:53:56.078Z,68.9
2023-06-10T07:54:56.075Z,68.9
2023-06-10T07:55:56.087Z,69.0
2023-06-10T07:56:56.081Z,69.3
2023-06-10T07:57:56.143Z,69.5
2023-06-10T07:58:56.121Z,68.9
2023-06-10T07:59:56.112Z,68.7
2023-06-10T08:00:56.124Z,68.7
2023-06-10T08:01:56.151Z,68.1
2023-06-10T08:02:56.443Z,68.2
2023-06-10T08:03:56.599Z,68.1
2023-06-10T08:04:56.283Z,68.2
2023-06-10T08:05:56.164Z,68.2
2023-06-10T08:06:56.206Z,67.9
2023-06-10T08:07:56.177Z,68.1
2023-06-10T08:08:56.176Z,67.7
2023-06-10T08:09:56.187Z,68.0
2023-06-10T08:10:56.208Z,68.2
2023-06-10T08:11:56.200Z,68.4
2023-06-10T08:12:56.199Z,68.3
2023-06-10T08:13:56.283Z,68.1
2023-06-10T08:14:56.208Z,67.8
2023-06-10T08:15:56.244Z,68.1
2023-06-10T08:16:56.660Z,67.8
2023-06-10T08:17:56.467Z,67.9
2023-06-10T08:18:56.260Z,67.8
2023-06-10T08:19:56.258Z,67.7
2023-06-10T08:20:56.289Z,67.4
2023-06-10T08:21:56.293Z,67.7
2023-06-10T08:22:56.297Z,67.9
2023-06-10T08:23:56.430Z,67.6
2023-06-10T08:24:56.283Z,67.2
2023-06-10T08:25:56.291Z,67.1
2023-06-10T08:26:56.302Z,67.2
2023-06-10T08:27:56.312Z,67.1
2023-06-10T08:28:56.324Z,67.4
2023-06-10T08:29:56.347Z,67.5
2023-06-10T08:30:58.030Z,67.3
2023-06-10T08:31:56.459Z,67.4
2023-06-10T08:32:56.487Z,67.5
2023-06-10T08:33:56.407Z,67.8
2023-06-10T08:34:56.378Z,67.8
2023-06-10T08:35:56.386Z,67.7
2023-06-10T08:36:56.474Z,67.5
2023-06-10T08:37:56.406Z,66.6
2023-06-10T08:38:56.395Z,66.5
2023-06-10T08:39:56.404Z,66.5
2023-06-10T08:40:56.414Z,66.6
2023-06-10T08:41:56.431Z,66.6
2023-06-10T08:42:56.426Z,66.6
2023-06-10T08:43:56.448Z,66.4
2023-06-10T08:44:56.468Z,66.2
2023-06-10T08:45:56.468Z,66.2
2023-06-10T08:46:56.471Z,66.4
2023-06-10T08:47:56.659Z,66.5
2023-06-10T08:48:56.774Z,66.8
2023-06-10T08:49:56.494Z,67.2
2023-06-10T08:50:56.706Z,67.2
2023-06-10T08:51:56.523Z,67.1
2023-06-10T08:52:56.728Z,66.8
2023-06-10T08:53:56.519Z,66.1
2023-06-10T08:54:56.516Z,66.1
2023-06-10T08:55:56.528Z,66.3
2023-06-10T08:56:56.605Z,66.2
2023-06-10T08:57:56.570Z,65.6
2023-06-10T08:58:56.566Z,65.5
2023-06-10T08:59:56.587Z,65.5
2023-06-10T09:00:56.587Z,65.7
2023-06-10T09:01:56.726Z,65.3
2023-06-10T09:02:56.830Z,65.2
2023-06-10T09:03:56.701Z,65.0
2023-06-10T09:04:56.609Z,64.8
2023-06-10T09:05:56.689Z,64.9
2023-06-10T09:06:56.612Z,64.4
2023-06-10T09:07:56.621Z,64.2
2023-06-10T09:08:56.648Z,64.2
2023-06-10T09:09:56.693Z,64.4
2023-06-10T09:10:56.638Z,64.9
2023-06-10T09:11:56.676Z,64.7
2023-06-10T09:12:56.748Z,64.4
2023-06-10T09:13:56.669Z,64.2
2023-06-10T09:14:56.686Z,64.0
2023-06-10T09:15:56.801Z,63.9
2023-06-10T09:16:56.685Z,64.0
2023-06-10T09:17:57.029Z,64.1
2023-06-10T09:18:56.759Z,64.3
2023-06-10T09:19:56.749Z,64.1
2023-06-10T09:20:56.737Z,64.1
2023-06-10T09:21:56.716Z,64.2
2023-06-10T09:22:56.726Z,64.0
2023-06-10T09:23:56.867Z,63.4
2023-06-10T09:24:56.758Z,63.7
2023-06-10T09:25:56.752Z,63.8
2023-06-10T09:26:56.745Z,63.9
2023-06-10T09:27:56.747Z,63.7
2023-06-10T09:28:56.769Z,63.8
2023-06-10T09:29:57.004Z,63.4
2023-06-10T09:30:56.787Z,63.7
2023-06-10T09:31:56.969Z,63.9
2023-06-10T09:32:56.990Z,63.6
2023-06-10T09:33:56.805Z,63.4
2023-06-10T09:34:56.989Z,63.4
2023-06-10T09:35:56.962Z,63.6
2023-06-10T09:36:56.897Z,63.6
2023-06-10T09:37:56.859Z,63.9
2023-06-10T09:39:22.844Z,63.6
2023-06-10T09:56:57.345Z,62.3
2023-06-10T09:57:57.158Z,62.6
2023-06-10T09:58:57.248Z,62.7
2023-06-10T09:59:57.067Z,62.9
2023-06-10T10:00:57.236Z,62.6
2023-06-10T10:01:57.113Z,62.5
2023-06-10T10:02:57.360Z,61.8
2023-06-10T10:03:57.095Z,62.0
2023-06-10T10:04:57.347Z,61.9
2023-06-10T10:05:57.461Z,61.6
2023-06-10T10:06:57.111Z,61.1
2023-06-10T10:07:57.129Z,61.3
2023-06-10T10:08:57.282Z,61.4
2023-06-10T10:09:57.160Z,61.4
2023-06-10T10:10:57.149Z,61.4
2023-06-10T10:11:57.473Z,61.8
2023-06-10T10:12:57.418Z,61.8
2023-06-10T10:13:57.318Z,61.6
2023-06-10T10:14:57.199Z,60.9
2023-06-10T10:15:57.178Z,60.9
2023-06-10T10:16:57.475Z,61.1
2023-06-10T10:17:57.424Z,61.6
2023-06-10T10:18:57.250Z,61.4
2023-06-10T10:19:57.224Z,61.3
2023-06-10T10:20:57.215Z,61.4
2023-06-10T10:21:57.237Z,61.1
2023-06-10T10:22:57.249Z,61.1
2023-06-10T10:23:57.358Z,61.0
2023-06-10T10:24:57.391Z,61.3
2023-06-10T10:25:57.369Z,61.2
2023-06-10T10:26:57.331Z,60.7
2023-06-10T10:27:57.502Z,60.2
2023-06-10T10:28:57.385Z,59.9
2023-06-10T10:29:57.571Z,60.0
2023-06-10T10:30:57.347Z,60.2
2023-06-10T10:31:57.392Z,60.3
2023-06-10T10:32:57.854Z,60.5
2023-06-10T10:33:57.974Z,60.5
2023-06-10T10:34:57.363Z,60.6
2023-06-10T10:35:57.351Z,60.1
2023-06-10T10:36:57.370Z,59.9
2023-06-10T10:37:57.369Z,60.3
2023-06-10T10:38:57.387Z,60.4
2023-06-10T10:39:57.384Z,60.5
2023-06-10T10:40:57.417Z,60.1
2023-06-10T10:41:57.588Z,59.5
2023-06-10T10:42:57.417Z,59.6
2023-06-10T10:43:57.595Z,59.7
2023-06-10T10:44:57.454Z,59.9
2023-06-10T10:45:57.463Z,60.1
2023-06-10T10:46:57.709Z,60.2
2023-06-10T10:47:57.614Z,60.2
2023-06-10T10:48:57.470Z,60.2
2023-06-10T10:49:57.649Z,59.8
2023-06-10T10:50:57.482Z,59.5
2023-06-10T10:51:57.554Z,59.4
2023-06-10T10:52:57.824Z,59.3
2023-06-10T10:53:57.599Z,59.2
2023-06-10T10:54:57.509Z,59.5
2023-06-10T10:55:57.553Z,59.6
2023-06-10T10:56:57.606Z,59.6
2023-06-10T10:57:57.597Z,59.6
2023-06-10T10:58:57.554Z,59.7
2023-06-10T10:59:58.015Z,59.7
2023-06-10T11:00:57.873Z,59.7
2023-06-10T11:01:57.761Z,59.2
2023-06-10T11:03:06.591Z,59.1
2023-06-10T11:03:58.130Z,59.1
2023-06-10T11:04:57.804Z,59.2
2023-06-10T11:05:57.601Z,59.2
2023-06-10T11:06:57.589Z,58.8
2023-06-10T11:07:57.591Z,58.7
2023-06-10T11:09:06.362Z,58.9
2023-06-10T11:09:57.639Z,59.1
2023-06-10T11:10:58.207Z,59.2
2023-06-10T11:11:57.632Z,58.8
2023-06-10T11:12:57.667Z,58.7
2023-06-10T11:13:57.641Z,58.8
2023-06-10T11:14:57.689Z,58.5
2023-06-10T11:15:57.652Z,58.3
2023-06-10T11:16:57.938Z,58.2
2023-06-10T11:17:57.822Z,58.2
2023-06-10T11:18:57.688Z,58.5
2023-06-10T11:19:57.702Z,58.5
2023-06-10T11:20:57.898Z,58.4
2023-06-10T11:21:58.174Z,58.0
2023-06-10T11:22:57.706Z,58.1
2023-06-10T11:23:57.970Z,58.2
2023-06-10T11:24:57.749Z,58.2
2023-06-10T11:25:57.749Z,58.4
2023-06-10T11:26:57.773Z,58.5
2023-06-10T11:27:57.922Z,58.2
2023-06-10T11:28:57.806Z,57.8
2023-06-10T11:29:57.935Z,57.5
2023-06-10T11:30:57.908Z,57.6
2023-06-10T11:31:57.871Z,57.8
2023-06-10T11:33:02.315Z,57.5
2023-06-10T11:33:57.820Z,57.5
2023-06-10T11:34:57.809Z,57.6
2023-06-10T11:35:57.827Z,57.5
2023-06-10T11:36:57.816Z,57.6
2023-06-10T11:37:57.828Z,57.5
2023-06-10T11:38:57.844Z,57.5
2023-06-10T11:39:57.852Z,57.4
2023-06-10T11:40:57.841Z,57.0
2023-06-10T11:41:57.920Z,57.2
2023-06-10T11:42:57.862Z,57.4
2023-06-10T11:43:57.924Z,57.5
2023-06-10T11:44:57.892Z,57.7
2023-06-10T11:45:58.042Z,57.6
2023-06-10T11:46:57.927Z,57.4
2023-06-10T11:47:58.156Z,57.2
2023-06-10T11:48:57.921Z,57.0
2023-06-10T11:49:57.965Z,57.1
2023-06-10T11:50:57.921Z,57.3
2023-06-10T11:51:57.963Z,57.3
2023-06-10T11:52:57.939Z,57.3
2023-06-10T11:53:57.986Z,57.6
2023-06-10T11:54:57.943Z,57.3
2023-06-10T11:55:57.968Z,57.1
2023-06-10T11:56:57.982Z,56.9
2023-06-10T11:57:57.989Z,56.4
2023-06-10T11:58:57.988Z,56.3
2023-06-10T11:59:58.009Z,56.2
2023-06-10T12:00:58.019Z,56.2
2023-06-10T12:01:58.029Z,56.4
2023-06-10T12:02:58.355Z,56.6
2023-06-10T12:03:58.034Z,56.5
2023-06-10T12:04:58.189Z,56.6
2023-06-10T12:05:58.164Z,56.6
2023-06-10T12:06:58.060Z,56.7
2023-06-10T12:07:58.068Z,56.7
2023-06-10T12:09:24.889Z,56.4
2023-06-10T12:09:58.081Z,56.1
2023-06-10T12:10:58.130Z,55.8
2023-06-10T12:11:58.126Z,55.6
2023-06-10T12:12:58.117Z,55.8
2023-06-10T12:13:58.142Z,55.8
2023-06-10T12:15:07.710Z,55.0
2023-06-10T12:15:58.222Z,54.9
2023-06-10T12:16:58.165Z,54.9
2023-06-10T12:17:58.450Z,54.7
2023-06-10T12:18:58.192Z,54.6
2023-06-10T12:19:58.191Z,54.6
2023-06-10T12:20:58.200Z,55.0
2023-06-10T12:21:58.400Z,55.3
2023-06-10T12:22:58.255Z,55.7
2023-06-10T12:23:58.359Z,55.7
2023-06-10T12:24:58.255Z,55.2
2023-06-10T12:25:58.303Z,55.0
2023-06-10T12:26:58.287Z,55.2
2023-06-10T12:27:58.370Z,55.3
2023-06-10T12:28:58.306Z,55.2
2023-06-10T12:29:58.283Z,55.2
2023-06-10T12:30:58.304Z,55.1
2023-06-10T12:31:58.437Z,55.0
2023-06-10T12:32:58.707Z,55.0
2023-06-10T12:33:58.334Z,54.8
2023-06-10T12:34:58.327Z,55.0
2023-06-10T12:35:58.468Z,55.0
2023-06-10T12:36:58.360Z,54.6
2023-06-10T12:37:58.459Z,54.2
2023-06-10T12:38:58.352Z,54.1
2023-06-10T12:39:58.375Z,54.2
2023-06-10T12:40:58.504Z,53.9
2023-06-10T12:41:58.399Z,53.9
2023-06-10T12:42:58.417Z,54.1
2023-06-10T12:43:58.413Z,54.0
2023-06-10T12:44:58.403Z,53.9
2023-06-10T12:45:58.520Z,54.0
2023-06-10T12:46:58.468Z,54.2
2023-06-10T12:47:58.638Z,54.3
2023-06-10T12:48:58.484Z,54.4
2023-06-10T12:49:58.467Z,54.2
2023-06-10T12:50:58.531Z,53.9
2023-06-10T12:51:58.479Z,54.1
2023-06-10T12:52:58.486Z,53.9
2023-06-10T12:53:58.509Z,54.1
2023-06-10T12:54:58.556Z,54.2
2023-06-10T12:55:58.521Z,54.4
2023-06-10T12:56:58.540Z,54.5
2023-06-10T12:57:58.518Z,54.4
2023-06-10T12:58:58.540Z,54.2
2023-06-10T12:59:58.534Z,54.3
2023-06-10T13:00:58.748Z,54.4
2023-06-10T13:01:58.580Z,54.4
2023-06-10T13:02:58.702Z,54.4
2023-06-10T13:03:58.597Z,54.5
2023-06-10T13:04:58.775Z,54.6
2023-06-10T13:05:58.596Z,54.6
2023-06-10T13:06:58.625Z,54.3
2023-06-10T13:07:58.627Z,54.3
2023-06-10T13:08:58.689Z,53.9
2023-06-10T13:09:58.625Z,53.9
2023-06-10T13:10:58.636Z,54.4
2023-06-10T13:11:58.750Z,54.7
2023-06-10T13:12:58.716Z,55.1
2023-06-10T13:13:58.688Z,54.4
2023-06-10T13:14:58.675Z,54.4
2023-06-10T13:15:58.689Z,54.6
2023-06-10T13:16:58.883Z,54.8
2023-06-10T13:17:58.878Z,54.9
2023-06-10T13:18:58.709Z,54.6
2023-06-10T13:19:58.733Z,54.6
2023-06-10T13:20:58.743Z,54.5
2023-06-10T13:21:58.731Z,54.4
2023-06-10T13:22:58.746Z,54.6
2023-06-10T13:23:58.889Z,54.6
2023-06-10T13:24:58.754Z,54.7
2023-06-10T13:25:58.765Z,54.9
2023-06-10T13:26:58.821Z,54.6
2023-06-10T13:27:58.836Z,54.5
2023-06-10T13:28:58.793Z,54.1
2023-06-10T13:29:58.832Z,54.4
2023-06-10T13:30:58.970Z,54.4
2023-06-10T13:31:58.817Z,54.1
2023-06-10T13:32:59.111Z,53.8
2023-06-10T13:33:58.827Z,53.8
2023-06-10T13:35:04.837Z,54.3
2023-06-10T13:35:58.843Z,54.4
2023-06-10T13:36:58.903Z,54.6
2023-06-10T13:37:58.876Z,54.4
2023-06-10T13:38:58.900Z,54.6
2023-06-10T13:39:58.958Z,54.6
2023-06-10T13:41:02.977Z,54.8
2023-06-10T13:41:58.952Z,54.6
2023-06-10T13:42:58.935Z,54.7
2023-06-10T13:43:58.925Z,54.9
2023-06-10T13:44:58.954Z,54.6
2023-06-10T13:45:59.153Z,54.5
2023-06-10T13:46:59.125Z,54.8
2023-06-10T13:47:59.078Z,54.9
2023-06-10T13:48:58.955Z,55.0
2023-06-10T13:49:58.968Z,55.0
2023-06-10T13:50:58.967Z,55.0
2023-06-10T13:51:58.995Z,54.3
2023-06-10T13:53:04.675Z,54.4